sensor_id;sensor_type;location;lat;lon;timestamp;temperature;humidity
26278;DHT22;14000;52.056;8.510;2023-05-17T00:01:43;8.50;99.90
26278;DHT22;14000;52.056;8.510;2023-05-17T00:04:09;8.40;99.90
26278;DHT22;14000;52.056;8.510;2023-05-17T00:06:35;8.40;99.90
26278;DHT22;14000;52.056;8.510;2023-05-17T00:09:00;8.40;99.90
26278;DHT22;14000;52.056;8.510;2023-05-17T00:11:26;8.30;99.90
26278;DHT22;14000;52.056;8.510;2023-05-17T00:13:52;8.30;99.90
26278;DHT22;14000;52.056;8.510;2023-05-17T00:16:17;8.30;99.90
26278;DHT22;14000;52.056;8.510;2023-05-17T00:18:43;8.30;99.90
26278;DHT22;14000;52.056;8.510;2023-05-17T00:21:09;8.20;99.90
26278;DHT22;14000;52.056;8.510;2023-05-17T00:23:34;8.20;99.90
26278;DHT22;14000;52.056;8.510;2023-05-17T00:26:00;8.20;99.90
26278;DHT22;14000;52.056;8.510;2023-05-17T00:28:25;8.20;99.90
26278;DHT22;14000;52.056;8.510;2023-05-17T00:30:51;8.10;99.90
26278;DHT22;14000;52.056;8.510;2023-05-17T00:33:17;8.10;99.90
26278;DHT22;14000;52.056;8.510;2023-05-17T00:35:42;8.10;99.90
26278;DHT22;14000;52.056;8.510;2023-05-17T00:38:08;8.10;99.90
26278;DHT22;14000;52.056;8.510;2023-05-17T00:40:33;8.10;99.90
26278;DHT22;14000;52.056;8.510;2023-05-17T00:42:59;8.00;99.90
26278;DHT22;14000;52.056;8.510;2023-05-17T00:45:24;8.00;99.90
26278;DHT22;14000;52.056;8.510;2023-05-17T00:47:50;8.00;99.90
26278;DHT22;14000;52.056;8.510;2023-05-17T00:50:15;8.00;99.90
26278;DHT22;14000;52.056;8.510;2023-05-17T00:52:41;8.10;99.90
26278;DHT22;14000;52.056;8.510;2023-05-17T00:55:07;8.00;99.90
26278;DHT22;14000;52.056;8.510;2023-05-17T00:57:33;8.00;99.90
26278;DHT22;14000;52.056;8.510;2023-05-17T00:59:59;8.00;99.90
26278;DHT22;14000;52.056;8.510;2023-05-17T01:02:24;8.00;99.90
26278;DHT22;14000;52.056;8.510;2023-05-17T01:04:50;8.00;99.90
26278;DHT22;14000;52.056;8.510;2023-05-17T01:07:16;8.00;99.90
26278;DHT22;14000;52.056;8.510;2023-05-17T01:09:42;7.90;99.90
26278;DHT22;14000;52.056;8.510;2023-05-17T01:15:27;7.90;99.90
26278;DHT22;14000;52.056;8.510;2023-05-17T01:18:18;7.90;99.90
26278;DHT22;14000;52.056;8.510;2023-05-17T01:20:46;7.80;99.90
26278;DHT22;14000;52.056;8.510;2023-05-17T01:23:54;7.80;99.90
26278;DHT22;14000;52.056;8.510;2023-05-17T01:26:38;7.80;99.90
26278;DHT22;14000;52.056;8.510;2023-05-17T01:29:07;7.80;99.90
26278;DHT22;14000;52.056;8.510;2023-05-17T01:31:35;7.80;99.90
26278;DHT22;14000;52.056;8.510;2023-05-17T01:34:05;7.70;99.90
26278;DHT22;14000;52.056;8.510;2023-05-17T01:36:30;7.70;99.90
26278;DHT22;14000;52.056;8.510;2023-05-17T01:38:56;7.70;99.90
26278;DHT22;14000;52.056;8.510;2023-05-17T01:41:39;7.70;99.90
26278;DHT22;14000;52.056;8.510;2023-05-17T01:44:29;7.70;99.90
26278;DHT22;14000;52.056;8.510;2023-05-17T01:49:51;7.60;99.90
26278;DHT22;14000;52.056;8.510;2023-05-17T01:52:30;7.60;99.90
26278;DHT22;14000;52.056;8.510;2023-05-17T01:55:09;7.60;99.90
26278;DHT22;14000;52.056;8.510;2023-05-17T01:57:42;7.60;99.90
26278;DHT22;14000;52.056;8.510;2023-05-17T02:00:10;7.60;99.90
26278;DHT22;14000;52.056;8.510;2023-05-17T02:02:36;7.60;99.90
26278;DHT22;14000;52.056;8.510;2023-05-17T02:05:02;7.60;99.90
26278;DHT22;14000;52.056;8.510;2023-05-17T02:07:28;7.60;99.90
26278;DHT22;14000;52.056;8.510;2023-05-17T02:09:53;7.50;99.90
26278;DHT22;14000;52.056;8.510;2023-05-17T02:12:19;7.50;99.90
26278;DHT22;14000;52.056;8.510;2023-05-17T02:14:44;7.50;99.90
26278;DHT22;14000;52.056;8.510;2023-05-17T02:17:10;7.50;99.90
26278;DHT22;14000;52.056;8.510;2023-05-17T02:19:36;7.40;99.90
26278;DHT22;14000;52.056;8.510;2023-05-17T02:22:01;7.40;99.90
26278;DHT22;14000;52.056;8.510;2023-05-17T02:24:27;7.40;99.90
26278;DHT22;14000;52.056;8.510;2023-05-17T02:26:52;7.40;99.90
26278;DHT22;14000;52.056;8.510;2023-05-17T02:29:18;7.40;99.90
26278;DHT22;14000;52.056;8.510;2023-05-17T02:31:43;7.40;99.90
26278;DHT22;14000;52.056;8.510;2023-05-17T02:34:10;7.30;99.90
26278;DHT22;14000;52.056;8.510;2023-05-17T02:36:35;7.30;99.90
26278;DHT22;14000;52.056;8.510;2023-05-17T02:39:01;7.30;99.90
26278;DHT22;14000;52.056;8.510;2023-05-17T02:41:27;7.30;99.90
26278;DHT22;14000;52.056;8.510;2023-05-17T02:43:52;7.30;99.90
26278;DHT22;14000;52.056;8.510;2023-05-17T02:46:18;7.30;99.90
26278;DHT22;14000;52.056;8.510;2023-05-17T02:48:43;7.30;99.90
26278;DHT22;14000;52.056;8.510;2023-05-17T02:51:09;7.30;99.90
26278;DHT22;14000;52.056;8.510;2023-05-17T02:53:35;7.30;99.90
26278;DHT22;14000;52.056;8.510;2023-05-17T02:56:00;7.30;99.90
26278;DHT22;14000;52.056;8.510;2023-05-17T02:58:26;7.30;99.90
26278;DHT22;14000;52.056;8.510;2023-05-17T03:00:52;7.30;99.90
26278;DHT22;14000;52.056;8.510;2023-05-17T03:03:17;7.40;99.90
26278;DHT22;14000;52.056;8.510;2023-05-17T03:05:43;7.40;99.90
26278;DHT22;14000;52.056;8.510;2023-05-17T03:08:09;7.40;99.90
26278;DHT22;14000;52.056;8.510;2023-05-17T03:10:34;7.40;99.90
26278;DHT22;14000;52.056;8.510;2023-05-17T03:13:00;7.50;99.90
26278;DHT22;14000;52.056;8.510;2023-05-17T03:15:26;7.40;99.90
26278;DHT22;14000;52.056;8.510;2023-05-17T03:17:54;7.40;99.90
26278;DHT22;14000;52.056;8.510;2023-05-17T03:20:21;7.40;99.90
26278;DHT22;14000;52.056;8.510;2023-05-17T03:22:46;7.40;99.90
26278;DHT22;14000;52.056;8.510;2023-05-17T03:25:12;7.40;99.90
26278;DHT22;14000;52.056;8.510;2023-05-17T03:27:38;7.40;99.90
26278;DHT22;14000;52.056;8.510;2023-05-17T03:30:03;7.40;99.90
26278;DHT22;14000;52.056;8.510;2023-05-17T03:32:29;7.40;99.90
26278;DHT22;14000;52.056;8.510;2023-05-17T03:34:55;7.40;99.90
26278;DHT22;14000;52.056;8.510;2023-05-17T03:37:20;7.30;99.90
26278;DHT22;14000;52.056;8.510;2023-05-17T03:39:46;7.40;99.90
26278;DHT22;14000;52.056;8.510;2023-05-17T03:42:12;7.30;99.90
26278;DHT22;14000;52.056;8.510;2023-05-17T03:44:38;7.40;99.90
26278;DHT22;14000;52.056;8.510;2023-05-17T03:47:04;7.30;99.90
26278;DHT22;14000;52.056;8.510;2023-05-17T03:49:30;7.30;99.90
26278;DHT22;14000;52.056;8.510;2023-05-17T03:51:56;7.30;99.90
26278;DHT22;14000;52.056;8.510;2023-05-17T03:54:21;7.30;99.90
26278;DHT22;14000;52.056;8.510;2023-05-17T03:56:47;7.30;99.90
26278;DHT22;14000;52.056;8.510;2023-05-17T03:59:14;7.20;99.90
26278;DHT22;14000;52.056;8.510;2023-05-17T04:01:42;7.30;99.90
26278;DHT22;14000;52.056;8.510;2023-05-17T04:04:08;7.20;99.90
26278;DHT22;14000;52.056;8.510;2023-05-17T04:06:34;7.20;99.90
26278;DHT22;14000;52.056;8.510;2023-05-17T04:08:59;7.30;99.90
26278;DHT22;14000;52.056;8.510;2023-05-17T04:11:26;7.30;99.90
26278;DHT22;14000;52.056;8.510;2023-05-17T04:13:53;7.30;99.90
26278;DHT22;14000;52.056;8.510;2023-05-17T04:16:19;7.30;99.90
26278;DHT22;14000;52.056;8.510;2023-05-17T04:18:45;7.20;99.90
26278;DHT22;14000;52.056;8.510;2023-05-17T04:21:11;7.30;99.90
26278;DHT22;14000;52.056;8.510;2023-05-17T04:23:36;7.30;99.90
26278;DHT22;14000;52.056;8.510;2023-05-17T04:26:03;7.30;99.90
26278;DHT22;14000;52.056;8.510;2023-05-17T04:28:30;7.40;99.90
26278;DHT22;14000;52.056;8.510;2023-05-17T04:30:56;7.40;99.90
26278;DHT22;14000;52.056;8.510;2023-05-17T04:33:22;7.40;99.90
26278;DHT22;14000;52.056;8.510;2023-05-17T04:35:49;7.40;99.90
26278;DHT22;14000;52.056;8.510;2023-05-17T04:38:15;7.50;99.90
26278;DHT22;14000;52.056;8.510;2023-05-17T04:40:41;7.50;99.90
26278;DHT22;14000;52.056;8.510;2023-05-17T04:43:07;7.50;99.90
26278;DHT22;14000;52.056;8.510;2023-05-17T04:45:33;7.60;99.90
26278;DHT22;14000;52.056;8.510;2023-05-17T04:47:59;7.60;99.90
26278;DHT22;14000;52.056;8.510;2023-05-17T04:50:25;7.70;99.90
26278;DHT22;14000;52.056;8.510;2023-05-17T04:52:51;7.70;99.90
26278;DHT22;14000;52.056;8.510;2023-05-17T04:55:16;7.80;99.90
26278;DHT22;14000;52.056;8.510;2023-05-17T04:57:42;7.80;99.90
26278;DHT22;14000;52.056;8.510;2023-05-17T05:00:08;7.90;99.90
26278;DHT22;14000;52.056;8.510;2023-05-17T05:02:34;8.00;99.90
26278;DHT22;14000;52.056;8.510;2023-05-17T05:05:00;8.10;99.90
26278;DHT22;14000;52.056;8.510;2023-05-17T05:07:26;8.10;99.90
26278;DHT22;14000;52.056;8.510;2023-05-17T05:09:51;8.20;99.90
26278;DHT22;14000;52.056;8.510;2023-05-17T05:12:17;8.30;99.90
26278;DHT22;14000;52.056;8.510;2023-05-17T05:14:43;8.30;99.90
26278;DHT22;14000;52.056;8.510;2023-05-17T05:17:08;8.40;99.90
26278;DHT22;14000;52.056;8.510;2023-05-17T05:19:34;8.50;99.90
26278;DHT22;14000;52.056;8.510;2023-05-17T05:22:00;8.50;99.90
26278;DHT22;14000;52.056;8.510;2023-05-17T05:24:25;8.50;99.90
26278;DHT22;14000;52.056;8.510;2023-05-17T05:26:51;8.60;99.90
26278;DHT22;14000;52.056;8.510;2023-05-17T05:29:17;8.70;99.90
26278;DHT22;14000;52.056;8.510;2023-05-17T05:31:43;8.70;99.90
26278;DHT22;14000;52.056;8.510;2023-05-17T05:34:09;8.70;99.90
26278;DHT22;14000;52.056;8.510;2023-05-17T05:36:34;8.80;99.90
26278;DHT22;14000;52.056;8.510;2023-05-17T05:39:00;8.80;99.90
26278;DHT22;14000;52.056;8.510;2023-05-17T05:41:26;8.80;99.90
26278;DHT22;14000;52.056;8.510;2023-05-17T05:43:51;8.90;99.90
26278;DHT22;14000;52.056;8.510;2023-05-17T05:46:17;8.80;99.90
26278;DHT22;14000;52.056;8.510;2023-05-17T05:48:42;8.90;99.90
26278;DHT22;14000;52.056;8.510;2023-05-17T05:51:09;8.90;99.90
26278;DHT22;14000;52.056;8.510;2023-05-17T05:53:35;8.90;99.90
26278;DHT22;14000;52.056;8.510;2023-05-17T05:56:01;9.10;99.90
26278;DHT22;14000;52.056;8.510;2023-05-17T05:58:28;9.10;99.90
26278;DHT22;14000;52.056;8.510;2023-05-17T06:00:54;9.10;99.90
26278;DHT22;14000;52.056;8.510;2023-05-17T06:03:20;9.10;99.90
26278;DHT22;14000;52.056;8.510;2023-05-17T06:05:45;9.10;99.90
26278;DHT22;14000;52.056;8.510;2023-05-17T06:08:11;9.10;99.90
26278;DHT22;14000;52.056;8.510;2023-05-17T06:10:36;9.10;99.90
26278;DHT22;14000;52.056;8.510;2023-05-17T06:13:02;9.10;99.90
26278;DHT22;14000;52.056;8.510;2023-05-17T06:15:30;9.10;99.90
26278;DHT22;14000;52.056;8.510;2023-05-17T06:17:56;9.10;99.90
26278;DHT22;14000;52.056;8.510;2023-05-17T06:20:21;9.10;99.90
26278;DHT22;14000;52.056;8.510;2023-05-17T06:22:47;9.10;99.90
26278;DHT22;14000;52.056;8.510;2023-05-17T06:25:13;9.10;99.90
26278;DHT22;14000;52.056;8.510;2023-05-17T06:27:38;9.10;99.90
26278;DHT22;14000;52.056;8.510;2023-05-17T06:30:05;9.20;99.90
26278;DHT22;14000;52.056;8.510;2023-05-17T06:32:31;9.30;99.90
26278;DHT22;14000;52.056;8.510;2023-05-17T06:34:56;9.30;99.90
26278;DHT22;14000;52.056;8.510;2023-05-17T06:37:23;9.30;99.90
26278;DHT22;14000;52.056;8.510;2023-05-17T06:39:50;9.30;99.90
26278;DHT22;14000;52.056;8.510;2023-05-17T06:42:16;9.30;99.90
26278;DHT22;14000;52.056;8.510;2023-05-17T06:44:42;9.40;99.90
26278;DHT22;14000;52.056;8.510;2023-05-17T06:47:07;9.50;99.90
26278;DHT22;14000;52.056;8.510;2023-05-17T06:49:33;9.60;99.90
26278;DHT22;14000;52.056;8.510;2023-05-17T06:51:59;9.70;99.90
26278;DHT22;14000;52.056;8.510;2023-05-17T06:54:28;9.70;99.90
26278;DHT22;14000;52.056;8.510;2023-05-17T06:56:58;9.50;99.90
26278;DHT22;14000;52.056;8.510;2023-05-17T06:59:23;9.70;99.90
26278;DHT22;14000;52.056;8.510;2023-05-17T07:01:49;9.60;99.90
26278;DHT22;14000;52.056;8.510;2023-05-17T07:04:15;9.70;99.90
26278;DHT22;14000;52.056;8.510;2023-05-17T07:06:40;9.70;99.90
26278;DHT22;14000;52.056;8.510;2023-05-17T07:09:06;9.70;99.90
26278;DHT22;14000;52.056;8.510;2023-05-17T07:11:32;9.80;99.90
26278;DHT22;14000;52.056;8.510;2023-05-17T07:13:58;9.90;99.90
26278;DHT22;14000;52.056;8.510;2023-05-17T07:16:23;10.00;99.90
26278;DHT22;14000;52.056;8.510;2023-05-17T07:18:49;10.00;99.90
26278;DHT22;14000;52.056;8.510;2023-05-17T07:21:14;10.00;99.90
26278;DHT22;14000;52.056;8.510;2023-05-17T07:23:40;10.10;99.90
26278;DHT22;14000;52.056;8.510;2023-05-17T07:26:06;10.10;99.90
26278;DHT22;14000;52.056;8.510;2023-05-17T07:28:31;10.10;99.90
26278;DHT22;14000;52.056;8.510;2023-05-17T07:30:57;10.20;99.90
26278;DHT22;14000;52.056;8.510;2023-05-17T07:33:22;10.30;99.90
26278;DHT22;14000;52.056;8.510;2023-05-17T07:35:48;10.40;99.90
26278;DHT22;14000;52.056;8.510;2023-05-17T07:38:13;10.40;99.90
26278;DHT22;14000;52.056;8.510;2023-05-17T07:40:39;10.20;99.90
26278;DHT22;14000;52.056;8.510;2023-05-17T07:43:05;10.00;99.90
26278;DHT22;14000;52.056;8.510;2023-05-17T07:45:31;10.00;99.90
26278;DHT22;14000;52.056;8.510;2023-05-17T07:47:56;10.00;99.90
26278;DHT22;14000;52.056;8.510;2023-05-17T07:50:22;9.90;99.90
26278;DHT22;14000;52.056;8.510;2023-05-17T07:52:47;9.90;99.90
26278;DHT22;14000;52.056;8.510;2023-05-17T07:55:13;10.00;99.90
26278;DHT22;14000;52.056;8.510;2023-05-17T07:57:39;10.10;99.90
26278;DHT22;14000;52.056;8.510;2023-05-17T08:00:05;10.00;99.90
26278;DHT22;14000;52.056;8.510;2023-05-17T08:02:30;9.90;99.90
26278;DHT22;14000;52.056;8.510;2023-05-17T08:04:56;9.80;99.90
26278;DHT22;14000;52.056;8.510;2023-05-17T08:07:22;10.00;99.90
26278;DHT22;14000;52.056;8.510;2023-05-17T08:09:47;10.00;99.90
26278;DHT22;14000;52.056;8.510;2023-05-17T08:12:13;10.00;99.90
26278;DHT22;14000;52.056;8.510;2023-05-17T08:14:39;10.00;99.90
26278;DHT22;14000;52.056;8.510;2023-05-17T08:17:04;10.20;99.90
26278;DHT22;14000;52.056;8.510;2023-05-17T08:19:30;10.10;99.90
26278;DHT22;14000;52.056;8.510;2023-05-17T08:21:55;10.10;99.90
26278;DHT22;14000;52.056;8.510;2023-05-17T08:24:21;10.10;99.90
26278;DHT22;14000;52.056;8.510;2023-05-17T08:26:46;10.00;99.90
26278;DHT22;14000;52.056;8.510;2023-05-17T08:29:12;10.10;99.90
26278;DHT22;14000;52.056;8.510;2023-05-17T08:31:38;10.10;99.90
26278;DHT22;14000;52.056;8.510;2023-05-17T08:34:03;10.20;99.90
26278;DHT22;14000;52.056;8.510;2023-05-17T08:36:29;10.30;99.90
26278;DHT22;14000;52.056;8.510;2023-05-17T08:38:54;10.50;99.90
26278;DHT22;14000;52.056;8.510;2023-05-17T08:41:20;10.60;99.90
26278;DHT22;14000;52.056;8.510;2023-05-17T08:43:47;10.70;99.90
26278;DHT22;14000;52.056;8.510;2023-05-17T08:46:13;10.90;99.90
26278;DHT22;14000;52.056;8.510;2023-05-17T08:48:41;11.00;99.90
26278;DHT22;14000;52.056;8.510;2023-05-17T08:51:07;11.20;99.90
26278;DHT22;14000;52.056;8.510;2023-05-17T08:53:36;11.40;99.90
26278;DHT22;14000;52.056;8.510;2023-05-17T08:56:03;11.40;99.90
26278;DHT22;14000;52.056;8.510;2023-05-17T08:58:41;11.40;99.90
26278;DHT22;14000;52.056;8.510;2023-05-17T09:01:07;11.40;99.90
26278;DHT22;14000;52.056;8.510;2023-05-17T09:03:34;11.40;99.90
26278;DHT22;14000;52.056;8.510;2023-05-17T09:06:01;11.50;99.90
26278;DHT22;14000;52.056;8.510;2023-05-17T09:08:27;11.40;99.90
26278;DHT22;14000;52.056;8.510;2023-05-17T09:10:54;11.30;99.90
26278;DHT22;14000;52.056;8.510;2023-05-17T09:13:23;11.40;99.90
26278;DHT22;14000;52.056;8.510;2023-05-17T09:15:49;11.70;99.90
26278;DHT22;14000;52.056;8.510;2023-05-17T09:18:15;11.70;99.90
26278;DHT22;14000;52.056;8.510;2023-05-17T09:20:41;11.70;99.90
26278;DHT22;14000;52.056;8.510;2023-05-17T09:23:08;11.60;99.90
26278;DHT22;14000;52.056;8.510;2023-05-17T09:25:35;11.60;99.90
26278;DHT22;14000;52.056;8.510;2023-05-17T09:28:05;11.80;99.90
26278;DHT22;14000;52.056;8.510;2023-05-17T09:30:35;11.80;99.90
26278;DHT22;14000;52.056;8.510;2023-05-17T09:33:05;11.70;99.90
26278;DHT22;14000;52.056;8.510;2023-05-17T09:35:32;11.70;99.90
26278;DHT22;14000;52.056;8.510;2023-05-17T09:38:12;11.90;99.90
26278;DHT22;14000;52.056;8.510;2023-05-17T09:40:39;12.00;99.90
26278;DHT22;14000;52.056;8.510;2023-05-17T09:43:05;12.10;99.90
26278;DHT22;14000;52.056;8.510;2023-05-17T09:45:31;12.00;99.90
26278;DHT22;14000;52.056;8.510;2023-05-17T09:48:09;11.90;99.90
26278;DHT22;14000;52.056;8.510;2023-05-17T09:50:35;12.00;99.90
26278;DHT22;14000;52.056;8.510;2023-05-17T09:53:00;12.00;99.90
26278;DHT22;14000;52.056;8.510;2023-05-17T09:55:26;11.90;99.90
26278;DHT22;14000;52.056;8.510;2023-05-17T09:57:52;11.90;99.90
26278;DHT22;14000;52.056;8.510;2023-05-17T10:00:20;12.00;99.90
26278;DHT22;14000;52.056;8.510;2023-05-17T10:02:47;12.10;99.90
26278;DHT22;14000;52.056;8.510;2023-05-17T10:05:15;12.10;99.90
26278;DHT22;14000;52.056;8.510;2023-05-17T10:07:43;12.20;99.90
26278;DHT22;14000;52.056;8.510;2023-05-17T10:10:10;12.40;99.90
26278;DHT22;14000;52.056;8.510;2023-05-17T10:12:39;12.60;99.90
26278;DHT22;14000;52.056;8.510;2023-05-17T10:15:05;12.60;99.90
26278;DHT22;14000;52.056;8.510;2023-05-17T10:17:35;12.80;99.90
26278;DHT22;14000;52.056;8.510;2023-05-17T10:20:05;12.70;99.90
26278;DHT22;14000;52.056;8.510;2023-05-17T10:22:31;12.90;99.90
26278;DHT22;14000;52.056;8.510;2023-05-17T10:24:58;12.90;99.90
26278;DHT22;14000;52.056;8.510;2023-05-17T10:27:24;12.70;99.90
26278;DHT22;14000;52.056;8.510;2023-05-17T10:29:51;12.50;99.90
26278;DHT22;14000;52.056;8.510;2023-05-17T10:32:18;12.60;99.90
26278;DHT22;14000;52.056;8.510;2023-05-17T10:34:48;12.90;99.90
26278;DHT22;14000;52.056;8.510;2023-05-17T10:37:16;13.00;99.90
26278;DHT22;14000;52.056;8.510;2023-05-17T10:39:42;13.00;99.90
26278;DHT22;14000;52.056;8.510;2023-05-17T10:42:12;12.90;99.90
26278;DHT22;14000;52.056;8.510;2023-05-17T10:44:40;13.00;99.90
26278;DHT22;14000;52.056;8.510;2023-05-17T10:47:06;13.00;99.90
26278;DHT22;14000;52.056;8.510;2023-05-17T10:49:33;13.00;99.90
26278;DHT22;14000;52.056;8.510;2023-05-17T10:52:18;13.00;99.90
26278;DHT22;14000;52.056;8.510;2023-05-17T10:54:47;13.20;99.90
26278;DHT22;14000;52.056;8.510;2023-05-17T10:57:19;13.10;99.90
26278;DHT22;14000;52.056;8.510;2023-05-17T10:59:58;13.30;99.90
26278;DHT22;14000;52.056;8.510;2023-05-17T11:02:25;13.30;99.90
26278;DHT22;14000;52.056;8.510;2023-05-17T11:04:51;13.50;99.90
26278;DHT22;14000;52.056;8.510;2023-05-17T11:09:54;14.40;99.90
26278;DHT22;14000;52.056;8.510;2023-05-17T11:12:46;14.70;99.90
26278;DHT22;14000;52.056;8.510;2023-05-17T11:15:23;14.40;99.90
26278;DHT22;14000;52.056;8.510;2023-05-17T11:17:51;14.00;99.90
26278;DHT22;14000;52.056;8.510;2023-05-17T11:22:56;14.30;99.90
26278;DHT22;14000;52.056;8.510;2023-05-17T11:25:37;14.90;99.90
26278;DHT22;14000;52.056;8.510;2023-05-17T11:28:17;16.50;99.90
26278;DHT22;14000;52.056;8.510;2023-05-17T11:30:43;18.00;99.90
26278;DHT22;14000;52.056;8.510;2023-05-17T11:33:16;19.00;99.90
26278;DHT22;14000;52.056;8.510;2023-05-17T11:35:43;19.00;99.90
26278;DHT22;14000;52.056;8.510;2023-05-17T11:38:22;18.60;99.90
26278;DHT22;14000;52.056;8.510;2023-05-17T11:40:54;17.50;99.90
26278;DHT22;14000;52.056;8.510;2023-05-17T11:43:21;16.70;99.90
26278;DHT22;14000;52.056;8.510;2023-05-17T11:45:48;16.10;99.90
26278;DHT22;14000;52.056;8.510;2023-05-17T11:48:15;15.80;99.90
26278;DHT22;14000;52.056;8.510;2023-05-17T11:50:43;15.40;99.90
26278;DHT22;14000;52.056;8.510;2023-05-17T11:53:09;15.00;99.90
26278;DHT22;14000;52.056;8.510;2023-05-17T11:58:06;14.40;99.90
26278;DHT22;14000;52.056;8.510;2023-05-17T12:00:32;14.50;99.90
26278;DHT22;14000;52.056;8.510;2023-05-17T12:03:14;14.90;99.90
26278;DHT22;14000;52.056;8.510;2023-05-17T12:05:39;15.00;99.90
26278;DHT22;14000;52.056;8.510;2023-05-17T12:08:05;15.30;99.90
26278;DHT22;14000;52.056;8.510;2023-05-17T12:10:31;15.50;99.90
26278;DHT22;14000;52.056;8.510;2023-05-17T12:12:57;15.80;99.90
26278;DHT22;14000;52.056;8.510;2023-05-17T12:15:23;16.10;99.90
26278;DHT22;14000;52.056;8.510;2023-05-17T12:17:49;16.00;99.90
26278;DHT22;14000;52.056;8.510;2023-05-17T12:20:15;15.80;99.90
26278;DHT22;14000;52.056;8.510;2023-05-17T12:22:54;15.60;99.90
26278;DHT22;14000;52.056;8.510;2023-05-17T12:25:21;16.00;99.90
26278;DHT22;14000;52.056;8.510;2023-05-17T12:28:10;16.30;99.90
26278;DHT22;14000;52.056;8.510;2023-05-17T12:30:36;16.40;99.90
26278;DHT22;14000;52.056;8.510;2023-05-17T12:33:02;15.90;99.90
26278;DHT22;14000;52.056;8.510;2023-05-17T12:35:28;15.70;99.90
26278;DHT22;14000;52.056;8.510;2023-05-17T12:37:53;15.90;99.90
26278;DHT22;14000;52.056;8.510;2023-05-17T12:40:19;16.50;99.90
26278;DHT22;14000;52.056;8.510;2023-05-17T12:42:46;16.80;99.90
26278;DHT22;14000;52.056;8.510;2023-05-17T12:45:11;16.70;99.90
26278;DHT22;14000;52.056;8.510;2023-05-17T12:47:37;16.00;99.90
26278;DHT22;14000;52.056;8.510;2023-05-17T12:50:03;15.60;99.90
26278;DHT22;14000;52.056;8.510;2023-05-17T12:52:33;15.30;99.90
26278;DHT22;14000;52.056;8.510;2023-05-17T12:55:03;15.50;99.90
26278;DHT22;14000;52.056;8.510;2023-05-17T12:57:29;15.20;99.90
26278;DHT22;14000;52.056;8.510;2023-05-17T12:59:54;14.90;99.90
26278;DHT22;14000;52.056;8.510;2023-05-17T13:02:20;14.80;99.90
26278;DHT22;14000;52.056;8.510;2023-05-17T13:04:46;15.10;99.90
26278;DHT22;14000;52.056;8.510;2023-05-17T13:07:20;15.00;99.90
26278;DHT22;14000;52.056;8.510;2023-05-17T13:09:46;15.00;99.90
26278;DHT22;14000;52.056;8.510;2023-05-17T13:12:21;14.80;99.90
26278;DHT22;14000;52.056;8.510;2023-05-17T13:14:49;14.90;99.90
26278;DHT22;14000;52.056;8.510;2023-05-17T13:17:35;15.10;99.90
26278;DHT22;14000;52.056;8.510;2023-05-17T13:20:01;15.20;99.90
26278;DHT22;14000;52.056;8.510;2023-05-17T13:22:27;15.50;99.90
26278;DHT22;14000;52.056;8.510;2023-05-17T13:24:53;15.60;99.90
26278;DHT22;14000;52.056;8.510;2023-05-17T13:27:19;15.50;99.90
26278;DHT22;14000;52.056;8.510;2023-05-17T13:29:45;15.10;99.90
26278;DHT22;14000;52.056;8.510;2023-05-17T13:32:11;15.00;99.90
26278;DHT22;14000;52.056;8.510;2023-05-17T13:34:37;14.80;99.90
26278;DHT22;14000;52.056;8.510;2023-05-17T13:37:03;14.90;99.90
26278;DHT22;14000;52.056;8.510;2023-05-17T13:39:29;14.80;99.90
26278;DHT22;14000;52.056;8.510;2023-05-17T13:41:55;14.90;99.90
26278;DHT22;14000;52.056;8.510;2023-05-17T13:44:21;15.20;99.90
26278;DHT22;14000;52.056;8.510;2023-05-17T13:46:46;15.10;99.90
26278;DHT22;14000;52.056;8.510;2023-05-17T13:49:12;14.90;99.90
26278;DHT22;14000;52.056;8.510;2023-05-17T13:51:38;15.00;99.90
26278;DHT22;14000;52.056;8.510;2023-05-17T13:54:07;14.70;99.90
26278;DHT22;14000;52.056;8.510;2023-05-17T13:56:33;14.50;99.90
26278;DHT22;14000;52.056;8.510;2023-05-17T13:58:59;14.50;99.90
26278;DHT22;14000;52.056;8.510;2023-05-17T14:01:25;14.60;99.90
26278;DHT22;14000;52.056;8.510;2023-05-17T14:03:50;14.50;99.90
26278;DHT22;14000;52.056;8.510;2023-05-17T14:06:16;14.50;99.90
26278;DHT22;14000;52.056;8.510;2023-05-17T14:08:42;14.50;99.90
26278;DHT22;14000;52.056;8.510;2023-05-17T14:11:08;14.70;99.90
26278;DHT22;14000;52.056;8.510;2023-05-17T14:13:34;14.80;99.90
26278;DHT22;14000;52.056;8.510;2023-05-17T14:15:59;15.00;99.90
26278;DHT22;14000;52.056;8.510;2023-05-17T14:18:25;14.90;99.90
26278;DHT22;14000;52.056;8.510;2023-05-17T14:20:51;14.70;99.90
26278;DHT22;14000;52.056;8.510;2023-05-17T14:23:17;14.60;99.90
26278;DHT22;14000;52.056;8.510;2023-05-17T14:25:43;14.60;99.90
26278;DHT22;14000;52.056;8.510;2023-05-17T14:28:09;14.60;99.90
26278;DHT22;14000;52.056;8.510;2023-05-17T14:30:36;14.50;99.90
26278;DHT22;14000;52.056;8.510;2023-05-17T14:33:02;14.40;99.90
26278;DHT22;14000;52.056;8.510;2023-05-17T14:35:27;14.30;99.90
26278;DHT22;14000;52.056;8.510;2023-05-17T14:37:55;14.40;99.90
26278;DHT22;14000;52.056;8.510;2023-05-17T14:40:20;14.40;99.90
26278;DHT22;14000;52.056;8.510;2023-05-17T14:42:46;14.80;99.90
26278;DHT22;14000;52.056;8.510;2023-05-17T14:45:12;15.10;99.90
26278;DHT22;14000;52.056;8.510;2023-05-17T14:47:38;15.30;99.90
26278;DHT22;14000;52.056;8.510;2023-05-17T14:50:04;15.60;99.90
26278;DHT22;14000;52.056;8.510;2023-05-17T14:52:29;15.50;99.90
26278;DHT22;14000;52.056;8.510;2023-05-17T14:54:55;15.10;99.90
26278;DHT22;14000;52.056;8.510;2023-05-17T14:57:21;15.10;99.90
26278;DHT22;14000;52.056;8.510;2023-05-17T14:59:46;14.80;99.90
26278;DHT22;14000;52.056;8.510;2023-05-17T15:02:12;14.70;99.90
26278;DHT22;14000;52.056;8.510;2023-05-17T15:04:38;14.60;99.90
26278;DHT22;14000;52.056;8.510;2023-05-17T15:07:04;14.30;99.90
26278;DHT22;14000;52.056;8.510;2023-05-17T15:09:30;14.20;99.90
26278;DHT22;14000;52.056;8.510;2023-05-17T15:11:56;14.10;99.90
26278;DHT22;14000;52.056;8.510;2023-05-17T15:14:22;14.10;99.90
26278;DHT22;14000;52.056;8.510;2023-05-17T15:16:50;14.20;99.90
26278;DHT22;14000;52.056;8.510;2023-05-17T15:19:16;14.20;99.90
26278;DHT22;14000;52.056;8.510;2023-05-17T15:21:42;14.10;99.90
26278;DHT22;14000;52.056;8.510;2023-05-17T15:24:08;14.10;99.90
26278;DHT22;14000;52.056;8.510;2023-05-17T15:26:34;14.30;99.90
26278;DHT22;14000;52.056;8.510;2023-05-17T15:28:59;14.30;99.90
26278;DHT22;14000;52.056;8.510;2023-05-17T15:31:25;14.50;99.90
26278;DHT22;14000;52.056;8.510;2023-05-17T15:33:53;14.30;99.90
26278;DHT22;14000;52.056;8.510;2023-05-17T15:36:18;14.10;99.90
26278;DHT22;14000;52.056;8.510;2023-05-17T15:38:44;13.90;99.90
26278;DHT22;14000;52.056;8.510;2023-05-17T15:41:12;13.80;99.90
26278;DHT22;14000;52.056;8.510;2023-05-17T15:43:38;13.60;99.90
26278;DHT22;14000;52.056;8.510;2023-05-17T15:46:04;13.50;99.90
26278;DHT22;14000;52.056;8.510;2023-05-17T15:48:29;13.50;99.90
26278;DHT22;14000;52.056;8.510;2023-05-17T15:50:56;13.50;99.90